Tangail, Bangladesh
Current Conditions -  °F | °C
As of 8:50 PM on Saturday 25 Oct 2014 (Local Time) from VGHS Reporting Station
Haze Haze  
Wind Chill: 25°   Ceiling: 1000
Heat Index: 26°   Visibility: 2.5mi
Dew Point: 21°   Wind: 3mph
Humidity: 78%   Direction: 290°WNW
Pressure: 29.85"   Gusts: NA
Location:  24.25°N, 89.92°E
Report Text: VGHS 251450Z 29003KT 4000 HZ BKN010 BKN100 25/21 Q1011 TEMPORA
Loading
Personal Weather Stations






























Interactive Weather Map
Tropical Storm Tracking
New forecast layout! Learn more

10-Day Weather Forecast

Advertisements
Track Severe Weather on mobile